createdAt,value
2018-11-27T00:01:42.239Z,10.53
2018-11-27T00:04:09.103Z,10.10
2018-11-27T00:06:35.885Z,8.85
2018-11-27T00:09:02.836Z,9.93
2018-11-27T00:11:29.620Z,9.30
2018-11-27T00:13:57.287Z,9.65
2018-11-27T00:16:24.356Z,8.40
2018-11-27T00:18:52.254Z,8.63
2018-11-27T00:21:20.331Z,9.63
2018-11-27T00:23:47.290Z,8.85
2018-11-27T00:26:14.369Z,7.55
2018-11-27T00:28:41.333Z,8.15
2018-11-27T00:31:08.212Z,7.35
2018-11-27T00:33:35.264Z,7.47
2018-11-27T00:36:02.337Z,7.78
2018-11-27T00:38:29.296Z,7.75
2018-11-27T00:40:56.389Z,8.55
2018-11-27T00:43:23.549Z,7.75
2018-11-27T00:45:50.622Z,7.30
2018-11-27T00:48:17.711Z,6.95
2018-11-27T00:50:44.745Z,8.20
2018-11-27T00:53:11.624Z,7.37
2018-11-27T00:55:38.574Z,6.75
2018-11-27T00:58:05.661Z,6.45
2018-11-27T01:00:32.716Z,7.33
2018-11-27T01:02:59.616Z,6.53
2018-11-27T01:05:26.454Z,6.50
2018-11-27T01:07:53.520Z,7.90
2018-11-27T01:10:20.390Z,7.87
2018-11-27T01:12:48.399Z,6.58
2018-11-27T01:15:15.777Z,6.55
2018-11-27T01:17:42.603Z,6.78
2018-11-27T01:20:09.472Z,8.00
2018-11-27T01:22:36.374Z,7.00
2018-11-27T01:25:03.679Z,7.28
2018-11-27T01:27:30.485Z,5.70
2018-11-27T01:29:57.437Z,7.50
2018-11-27T01:32:24.372Z,7.00
2018-11-27T01:34:51.244Z,7.80
2018-11-27T01:37:18.035Z,6.37
2018-11-27T01:39:44.898Z,6.70
2018-11-27T01:42:11.778Z,6.70
2018-11-27T01:44:38.514Z,6.70
2018-11-27T01:47:05.400Z,6.58
2018-11-27T01:49:32.828Z,6.55
2018-11-27T01:51:59.945Z,5.47
2018-11-27T01:54:26.933Z,6.65
2018-11-27T01:56:53.836Z,7.35
2018-11-27T01:59:20.882Z,6.85
2018-11-27T02:01:47.898Z,7.10
2018-11-27T02:04:14.595Z,7.17
2018-11-27T02:06:41.710Z,7.28
2018-11-27T02:09:09.016Z,6.92
2018-11-27T02:11:35.812Z,7.50
2018-11-27T02:14:02.580Z,7.50
2018-11-27T02:16:29.708Z,6.92
2018-11-27T02:18:57.670Z,7.00
2018-11-27T02:21:24.743Z,7.40
2018-11-27T02:23:51.852Z,7.20
2018-11-27T02:26:19.252Z,5.62
2018-11-27T02:28:46.101Z,7.25
2018-11-27T02:31:12.934Z,6.33
2018-11-27T02:33:39.734Z,6.25
2018-11-27T02:36:06.601Z,6.30
2018-11-27T02:38:33.560Z,6.15
2018-11-27T02:41:00.532Z,5.80
2018-11-27T02:43:27.589Z,6.65
2018-11-27T02:45:54.457Z,7.10
2018-11-27T02:48:21.635Z,6.65
2018-11-27T02:50:48.390Z,7.37
2018-11-27T02:53:15.628Z,6.03
2018-11-27T02:55:42.493Z,6.70
2018-11-27T02:58:09.366Z,5.90
2018-11-27T03:00:36.405Z,6.62
2018-11-27T03:03:03.418Z,6.53
2018-11-27T03:05:30.259Z,6.95
2018-11-27T03:07:58.298Z,7.40
2018-11-27T03:10:25.362Z,7.37
2018-11-27T03:12:53.012Z,8.00
2018-11-27T03:15:19.920Z,6.30
2018-11-27T03:17:46.957Z,6.97
2018-11-27T03:20:14.355Z,8.58
2018-11-27T03:22:42.157Z,7.22
2018-11-27T03:25:09.121Z,9.23
2018-11-27T03:27:36.157Z,7.60
2018-11-27T03:30:03.822Z,9.25
2018-11-27T03:32:30.773Z,8.45
2018-11-27T03:34:57.712Z,7.10
2018-11-27T03:37:24.612Z,7.42
2018-11-27T03:39:51.730Z,7.90
2018-11-27T03:42:18.581Z,6.92
2018-11-27T03:44:45.824Z,7.58
2018-11-27T03:47:12.706Z,7.53
2018-11-27T03:49:39.511Z,8.35
2018-11-27T03:52:06.537Z,8.23
2018-11-27T03:54:33.781Z,9.23
2018-11-27T03:57:00.613Z,8.35
2018-11-27T03:59:27.748Z,7.40
2018-11-27T04:01:54.617Z,9.30
2018-11-27T04:04:21.801Z,7.47
2018-11-27T04:06:49.106Z,8.13
2018-11-27T04:09:16.170Z,7.92
2018-11-27T04:11:42.910Z,7.85
2018-11-27T04:14:09.859Z,8.20
2018-11-27T04:16:37.498Z,9.35
2018-11-27T04:19:04.418Z,8.18
2018-11-27T04:21:32.151Z,8.13
2018-11-27T04:23:59.396Z,7.95
2018-11-27T04:26:26.440Z,10.65
2018-11-27T04:28:53.660Z,8.03
2018-11-27T04:31:20.686Z,7.65
2018-11-27T04:33:47.818Z,7.83
2018-11-27T04:36:14.710Z,7.40
2018-11-27T04:38:41.593Z,8.23
2018-11-27T04:41:08.363Z,8.00
2018-11-27T04:43:35.536Z,8.88
2018-11-27T04:46:02.694Z,7.97
2018-11-27T04:48:29.983Z,8.50
2018-11-27T04:50:57.368Z,7.65
2018-11-27T04:53:24.739Z,7.45
2018-11-27T04:55:51.642Z,7.42
2018-11-27T04:58:18.651Z,7.95
2018-11-27T05:00:45.893Z,9.08
2018-11-27T05:03:13.085Z,8.03
2018-11-27T05:05:40.172Z,7.20
2018-11-27T05:08:07.174Z,7.70
2018-11-27T05:10:34.448Z,7.42
2018-11-27T05:13:01.481Z,7.55
2018-11-27T05:15:28.889Z,7.67
2018-11-27T05:17:56.050Z,7.40
2018-11-27T05:20:23.173Z,7.55
2018-11-27T05:22:50.185Z,6.33
2018-11-27T05:25:16.939Z,7.70
2018-11-27T05:27:43.806Z,7.53
2018-11-27T05:30:10.714Z,6.75
2018-11-27T05:32:37.740Z,7.97
2018-11-27T05:35:04.719Z,6.95
2018-11-27T05:37:32.006Z,7.00
2018-11-27T05:39:58.896Z,6.45
2018-11-27T05:42:25.817Z,8.05
2018-11-27T05:44:53.012Z,7.05
2018-11-27T05:47:19.838Z,8.18
2018-11-27T05:49:46.907Z,7.05
2018-11-27T05:52:13.788Z,8.30
2018-11-27T05:54:40.942Z,8.05
2018-11-27T05:57:07.946Z,7.80
2018-11-27T05:59:34.975Z,8.50
2018-11-27T06:02:01.917Z,7.47
2018-11-27T06:04:29.019Z,8.53
2018-11-27T06:06:56.147Z,9.98
2018-11-27T06:09:23.479Z,7.62
2018-11-27T06:11:50.525Z,8.58
2018-11-27T06:14:17.577Z,7.92
2018-11-27T06:16:44.578Z,9.03
2018-11-27T06:19:12.559Z,10.13
2018-11-27T06:21:39.645Z,9.03
2018-11-27T06:24:09.440Z,10.03
2018-11-27T06:26:36.635Z,9.45
2018-11-27T06:29:03.655Z,10.23
2018-11-27T06:31:31.625Z,9.70
2018-11-27T06:33:58.647Z,9.13
2018-11-27T06:36:25.629Z,9.45
2018-11-27T06:38:53.103Z,9.60
2018-11-27T06:41:19.974Z,9.85
2018-11-27T06:43:46.833Z,9.40
2018-11-27T06:46:13.699Z,8.80
2018-11-27T06:48:41.163Z,8.83
2018-11-27T06:51:08.284Z,9.65
2018-11-27T06:53:35.248Z,9.23
2018-11-27T06:56:02.205Z,8.35
2018-11-27T06:58:29.142Z,9.35
2018-11-27T07:00:56.126Z,9.13
2018-11-27T07:03:22.943Z,10.45
2018-11-27T07:05:50.156Z,10.43
2018-11-27T07:08:17.234Z,8.80
2018-11-27T07:10:44.192Z,9.10
2018-11-27T07:13:11.851Z,11.03
2018-11-27T07:15:38.934Z,8.78
2018-11-27T07:18:06.056Z,8.15
2018-11-27T07:20:33.334Z,8.75
2018-11-27T07:23:00.422Z,8.88
2018-11-27T07:25:27.362Z,8.98
2018-11-27T07:27:54.294Z,10.88
2018-11-27T07:30:21.247Z,10.75
2018-11-27T07:32:48.037Z,9.43
2018-11-27T07:35:15.085Z,12.00
2018-11-27T07:37:41.950Z,9.25
2018-11-27T07:40:08.927Z,10.28
2018-11-27T07:42:36.824Z,9.48
2018-11-27T07:45:03.780Z,10.82
2018-11-27T07:47:30.589Z,9.95
2018-11-27T07:49:57.583Z,10.78
2018-11-27T07:52:24.607Z,10.88
2018-11-27T07:54:51.666Z,9.90
2018-11-27T07:57:18.591Z,10.58
2018-11-27T07:59:45.521Z,11.38
2018-11-27T08:02:12.489Z,9.48
2018-11-27T08:04:40.349Z,10.58
2018-11-27T08:07:07.329Z,9.80
2018-11-27T08:09:34.275Z,10.20
2018-11-27T08:12:01.137Z,10.28
2018-11-27T08:14:28.254Z,8.73
2018-11-27T08:16:55.247Z,9.75
2018-11-27T08:19:22.244Z,8.53
2018-11-27T08:21:49.402Z,8.48
2018-11-27T08:24:16.479Z,8.65
2018-11-27T08:26:43.438Z,9.15
2018-11-27T08:29:10.599Z,8.38
2018-11-27T08:31:37.636Z,8.13
2018-11-27T08:34:05.369Z,7.22
2018-11-27T08:36:32.037Z,8.83
2018-11-27T08:38:58.893Z,8.95
2018-11-27T08:41:26.274Z,8.35
2018-11-27T08:43:53.189Z,8.08
2018-11-27T08:46:20.115Z,9.05
2018-11-27T08:48:47.019Z,10.03
2018-11-27T08:51:14.223Z,6.62
2018-11-27T08:53:41.148Z,5.15
2018-11-27T08:56:08.160Z,5.22
2018-11-27T08:58:36.179Z,5.40
2018-11-27T09:01:01.853Z,5.25
2018-11-27T09:03:28.657Z,7.55
2018-11-27T09:05:55.527Z,7.45
2018-11-27T09:08:22.398Z,7.37
2018-11-27T09:10:49.249Z,6.95
2018-11-27T09:13:16.611Z,7.35
2018-11-27T09:15:43.595Z,8.33
2018-11-27T09:18:10.356Z,6.85
2018-11-27T09:20:37.255Z,7.05
2018-11-27T09:23:04.113Z,6.60
2018-11-27T09:25:30.973Z,6.80
2018-11-27T09:27:57.710Z,8.05
2018-11-27T09:30:24.575Z,7.42
2018-11-27T09:32:51.338Z,7.85
2018-11-27T09:35:18.217Z,7.47
2018-11-27T09:37:45.273Z,7.62
2018-11-27T09:40:12.131Z,7.80
2018-11-27T09:42:38.913Z,7.95
2018-11-27T09:45:05.772Z,7.55
2018-11-27T09:47:32.532Z,8.15
2018-11-27T09:49:59.389Z,7.78
2018-11-27T09:52:26.272Z,7.10
2018-11-27T09:54:53.133Z,8.40
2018-11-27T09:57:19.893Z,7.15
2018-11-27T09:59:46.753Z,6.90
2018-11-27T10:02:13.615Z,6.47
2018-11-27T10:04:40.396Z,6.10
2018-11-27T10:07:07.154Z,5.65
2018-11-27T10:09:33.913Z,5.40
2018-11-27T10:12:01.394Z,5.58
2018-11-27T10:14:28.253Z,5.17
2018-11-27T10:16:55.125Z,5.60
2018-11-27T10:19:26.624Z,5.40
2018-11-27T10:21:48.845Z,4.80
2018-11-27T10:24:16.025Z,5.40
2018-11-27T10:26:43.000Z,5.47
2018-11-27T10:29:09.951Z,5.08
2018-11-27T10:31:36.824Z,4.47
2018-11-27T10:34:03.678Z,4.10
2018-11-27T10:36:30.563Z,4.20
2018-11-27T10:39:00.999Z,3.92
2018-11-27T10:41:24.908Z,4.17
2018-11-27T10:43:51.552Z,3.80
2018-11-27T10:46:18.420Z,3.30
2018-11-27T10:48:45.381Z,3.67
2018-11-27T10:51:12.355Z,5.22
2018-11-27T10:53:39.621Z,4.45
2018-11-27T10:56:06.495Z,4.40
2018-11-27T10:58:33.258Z,3.62
2018-11-27T11:01:01.032Z,4.42
2018-11-27T11:03:27.902Z,3.98
2018-11-27T11:05:54.775Z,3.35
2018-11-27T11:08:21.525Z,3.20
2018-11-27T11:10:48.503Z,2.90
2018-11-27T11:13:15.659Z,2.58
2018-11-27T11:15:42.834Z,2.92
2018-11-27T11:18:09.602Z,2.70
2018-11-27T11:20:36.562Z,3.00
2018-11-27T11:23:03.336Z,2.80
2018-11-27T11:25:30.196Z,2.87
2018-11-27T11:27:57.062Z,3.33
2018-11-27T11:30:23.942Z,2.70
2018-11-27T11:32:50.694Z,2.30
2018-11-27T11:35:17.560Z,2.00
2018-11-27T11:37:44.518Z,2.40
2018-11-27T11:40:11.394Z,1.30
2018-11-27T11:42:38.259Z,1.75
2018-11-27T11:45:05.163Z,1.52
2018-11-27T11:47:32.083Z,1.92
2018-11-27T11:49:59.055Z,2.20
2018-11-27T11:52:25.910Z,1.60
2018-11-27T11:54:52.776Z,1.50
2018-11-27T11:57:19.949Z,2.00
2018-11-27T11:59:46.709Z,2.12
2018-11-27T12:02:13.581Z,1.60
2018-11-27T12:04:40.337Z,1.95
2018-11-27T12:07:07.202Z,2.15
2018-11-27T12:09:34.070Z,1.98
2018-11-27T12:12:00.929Z,1.98
2018-11-27T12:14:27.808Z,1.72
2018-11-27T12:16:54.654Z,1.60
2018-11-27T12:19:21.536Z,1.87
2018-11-27T12:21:48.406Z,1.60
2018-11-27T12:24:15.362Z,1.60
2018-11-27T12:26:42.339Z,1.75
2018-11-27T12:29:09.105Z,1.95
2018-11-27T12:31:35.955Z,1.90
2018-11-27T12:34:02.718Z,1.10
2018-11-27T12:36:29.579Z,1.75
2018-11-27T12:38:56.336Z,2.00
2018-11-27T12:41:23.220Z,2.08
2018-11-27T12:43:50.184Z,1.57
2018-11-27T12:46:17.151Z,1.70
2018-11-27T12:48:43.912Z,1.67
2018-11-27T12:51:11.125Z,1.70
2018-11-27T12:53:37.739Z,2.05
2018-11-27T12:56:04.596Z,1.30
2018-11-27T12:58:31.781Z,2.00
2018-11-27T13:00:58.635Z,1.55
2018-11-27T13:03:25.714Z,1.95
2018-11-27T13:05:52.578Z,1.62
2018-11-27T13:08:20.160Z,2.27
2018-11-27T13:10:46.816Z,2.45
2018-11-27T13:13:13.675Z,2.80
2018-11-27T13:15:40.439Z,2.35
2018-11-27T13:18:07.306Z,2.55
2018-11-27T13:20:34.075Z,2.77
2018-11-27T13:23:00.907Z,2.80
2018-11-27T13:25:27.701Z,2.85
2018-11-27T13:27:54.962Z,2.95
2018-11-27T13:30:21.630Z,2.80
2018-11-27T13:32:48.398Z,2.58
2018-11-27T13:35:15.070Z,2.20
2018-11-27T13:37:41.915Z,2.25
2018-11-27T13:40:08.992Z,2.62
2018-11-27T13:42:35.851Z,1.82
2018-11-27T13:45:02.942Z,2.20
2018-11-27T13:47:30.905Z,2.20
2018-11-27T13:49:57.773Z,2.27
2018-11-27T13:52:24.548Z,2.40
2018-11-27T13:54:51.394Z,2.02
2018-11-27T13:57:18.386Z,2.55
2018-11-27T13:59:45.136Z,2.08
2018-11-27T14:02:11.890Z,2.30
2018-11-27T14:04:38.769Z,2.60
2018-11-27T14:07:05.728Z,2.85
2018-11-27T14:09:32.487Z,3.12
2018-11-27T14:11:59.350Z,3.37
2018-11-27T14:14:26.244Z,2.92
2018-11-27T14:16:53.188Z,2.95
2018-11-27T14:19:20.277Z,2.30
2018-11-27T14:21:47.019Z,3.05
2018-11-27T14:24:13.788Z,3.25
2018-11-27T14:26:40.652Z,3.30
2018-11-27T14:29:07.506Z,3.45
2018-11-27T14:31:34.280Z,3.05
2018-11-27T14:34:01.353Z,3.75
2018-11-27T14:36:28.139Z,3.62
2018-11-27T14:38:54.978Z,3.52
2018-11-27T14:41:22.237Z,4.50
2018-11-27T14:43:49.118Z,4.08
2018-11-27T14:46:15.978Z,4.83
2018-11-27T14:48:42.857Z,4.40
2018-11-27T14:51:09.698Z,4.20
2018-11-27T14:53:36.628Z,3.42
2018-11-27T14:56:03.431Z,2.85
2018-11-27T14:58:30.197Z,2.90
2018-11-27T15:00:56.967Z,3.33
2018-11-27T15:03:23.828Z,3.10
2018-11-27T15:05:50.536Z,3.40
2018-11-27T15:08:17.564Z,3.33
2018-11-27T15:10:44.737Z,4.58
2018-11-27T15:13:11.499Z,3.12
2018-11-27T15:15:38.256Z,3.87
2018-11-27T15:18:05.214Z,3.80
2018-11-27T15:20:32.297Z,3.30
2018-11-27T15:22:59.167Z,4.22
2018-11-27T15:25:26.134Z,3.98
2018-11-27T15:27:53.198Z,4.35
2018-11-27T15:30:20.161Z,4.78
2018-11-27T15:32:47.053Z,4.28
2018-11-27T15:35:13.889Z,4.65
2018-11-27T15:37:40.760Z,5.20
2018-11-27T15:40:07.510Z,4.12
2018-11-27T15:42:34.278Z,5.50
2018-11-27T15:45:01.044Z,6.17
2018-11-27T15:47:28.002Z,5.15
2018-11-27T15:49:54.891Z,5.60
2018-11-27T15:52:21.944Z,7.40
2018-11-27T15:54:48.907Z,5.42
2018-11-27T15:57:16.582Z,4.83
2018-11-27T15:59:43.463Z,5.00
2018-11-27T16:02:10.226Z,5.17
2018-11-27T16:04:36.984Z,6.50
2018-11-27T16:07:03.562Z,6.85
2018-11-27T16:09:30.416Z,6.17
2018-11-27T16:11:57.367Z,7.47
2018-11-27T16:14:24.336Z,5.87
2018-11-27T16:16:51.297Z,6.05
2018-11-27T16:19:18.076Z,4.70
2018-11-27T16:21:44.768Z,4.92
2018-11-27T16:24:11.514Z,4.03
2018-11-27T16:26:38.727Z,5.35
2018-11-27T16:29:05.642Z,7.22
2018-11-27T16:31:32.325Z,6.05
2018-11-27T16:33:59.260Z,5.00
2018-11-27T16:36:26.227Z,4.45
2018-11-27T16:38:53.185Z,6.70
2018-11-27T16:41:19.947Z,6.25
2018-11-27T16:43:46.819Z,6.60
2018-11-27T16:46:13.787Z,6.60
2018-11-27T16:48:40.758Z,8.48
2018-11-27T16:51:07.923Z,6.95
2018-11-27T16:53:34.640Z,7.80
2018-11-27T16:56:01.362Z,7.85
2018-11-27T16:58:28.436Z,7.40
2018-11-27T17:00:55.486Z,7.25
2018-11-27T17:03:22.440Z,6.58
2018-11-27T17:05:49.434Z,6.58
2018-11-27T17:08:16.264Z,5.65
2018-11-27T17:10:43.259Z,6.05
2018-11-27T17:13:10.018Z,6.37
2018-11-27T17:15:36.885Z,4.60
2018-11-27T17:18:03.654Z,5.85
2018-11-27T17:20:30.516Z,5.30
2018-11-27T17:22:57.746Z,5.22
2018-11-27T17:25:24.648Z,4.72
2018-11-27T17:27:51.717Z,5.00
2018-11-27T17:30:18.580Z,5.83
2018-11-27T17:32:45.335Z,4.65
2018-11-27T17:35:12.218Z,4.97
2018-11-27T17:37:39.437Z,7.72
2018-11-27T17:40:06.526Z,5.05
2018-11-27T17:42:33.325Z,4.92
2018-11-27T17:45:00.225Z,6.67
2018-11-27T17:47:27.045Z,18.45
2018-11-27T17:49:53.946Z,13.40
2018-11-27T17:52:20.969Z,7.17
2018-11-27T17:54:48.046Z,5.28
2018-11-27T17:57:14.826Z,5.10
2018-11-27T17:59:41.687Z,4.55
2018-11-27T18:02:08.546Z,4.50
2018-11-27T18:04:35.506Z,3.58
2018-11-27T18:07:02.406Z,5.40
2018-11-27T18:09:29.245Z,4.25
2018-11-27T18:11:56.006Z,4.33
2018-11-27T18:14:22.989Z,5.30
2018-11-27T18:16:49.938Z,5.08
2018-11-27T18:19:16.906Z,4.53
2018-11-27T18:21:43.983Z,5.30
2018-11-27T18:24:11.029Z,5.33
2018-11-27T18:26:37.809Z,4.87
2018-11-27T18:29:04.669Z,4.92
2018-11-27T18:31:31.532Z,4.10
2018-11-27T18:33:58.499Z,5.72
2018-11-27T18:36:25.952Z,6.40
2018-11-27T18:38:52.835Z,6.20
2018-11-27T18:41:19.529Z,6.10
2018-11-27T18:43:46.501Z,6.53
2018-11-27T18:46:13.325Z,5.65
2018-11-27T18:48:40.506Z,4.33
2018-11-27T18:51:07.420Z,4.60
2018-11-27T18:53:34.250Z,4.10
2018-11-27T18:56:01.302Z,3.50
2018-11-27T18:58:28.166Z,3.25
2018-11-27T19:00:55.141Z,4.17
2018-11-27T19:03:21.888Z,3.58
2018-11-27T19:05:48.670Z,3.77
2018-11-27T19:08:15.310Z,3.70
2018-11-27T19:10:42.471Z,4.03
2018-11-27T19:13:09.252Z,3.75
2018-11-27T19:15:36.230Z,4.72
2018-11-27T19:18:03.317Z,4.20
2018-11-27T19:20:30.370Z,4.25
2018-11-27T19:22:57.631Z,5.90
2018-11-27T19:25:24.511Z,4.55
2018-11-27T19:27:51.350Z,5.25
2018-11-27T19:30:18.272Z,5.05
2018-11-27T19:32:45.164Z,4.67
2018-11-27T19:35:12.066Z,4.85
2018-11-27T19:37:38.844Z,3.30
2018-11-27T19:40:05.819Z,3.65
2018-11-27T19:42:32.680Z,3.05
2018-11-27T19:44:59.740Z,3.00
2018-11-27T19:47:26.603Z,4.60
2018-11-27T19:49:53.485Z,5.05
2018-11-27T19:52:20.423Z,4.35
2018-11-27T19:54:47.352Z,4.78
2018-11-27T19:57:14.211Z,4.80
2018-11-27T19:59:41.392Z,4.65
2018-11-27T20:02:08.402Z,4.53
2018-11-27T20:04:35.372Z,5.60
2018-11-27T20:07:03.052Z,4.55
2018-11-27T20:09:30.013Z,4.40
2018-11-27T20:11:56.893Z,3.83
2018-11-27T20:14:24.974Z,4.40
2018-11-27T20:16:52.038Z,3.50
2018-11-27T20:19:19.377Z,4.42
2018-11-27T20:21:46.396Z,4.10
2018-11-27T20:24:13.259Z,3.80
2018-11-27T20:26:40.216Z,3.55
2018-11-27T20:29:07.276Z,4.53
2018-11-27T20:31:34.037Z,4.58
2018-11-27T20:34:01.317Z,4.37
2018-11-27T20:36:28.287Z,4.47
2018-11-27T20:38:55.225Z,4.72
2018-11-27T20:41:22.792Z,5.58
2018-11-27T20:43:49.699Z,4.20
2018-11-27T20:46:16.659Z,4.75
2018-11-27T20:48:43.640Z,4.90
2018-11-27T20:51:10.504Z,4.80
2018-11-27T20:53:37.344Z,4.12
2018-11-27T20:56:04.378Z,4.10
2018-11-27T20:58:31.140Z,4.20
2018-11-27T21:00:58.504Z,4.60
2018-11-27T21:03:25.442Z,4.70
2018-11-27T21:05:52.517Z,4.00
2018-11-27T21:08:19.483Z,4.08
2018-11-27T21:10:46.834Z,3.98
2018-11-27T21:13:14.109Z,4.05
2018-11-27T21:15:41.191Z,4.45
2018-11-27T21:18:08.254Z,3.67
2018-11-27T21:20:35.171Z,4.28
2018-11-27T21:23:02.200Z,4.10
2018-11-27T21:25:29.327Z,4.53
2018-11-27T21:27:56.289Z,4.10
2018-11-27T21:30:23.253Z,4.35
2018-11-27T21:32:50.096Z,4.45
2018-11-27T21:35:16.942Z,4.95
2018-11-27T21:37:43.789Z,4.90
2018-11-27T21:40:10.536Z,4.40
2018-11-27T21:42:37.665Z,4.50
2018-11-27T21:45:05.021Z,5.53
2018-11-27T21:47:31.756Z,3.92
2018-11-27T21:49:59.461Z,4.12
2018-11-27T21:52:26.510Z,4.00
2018-11-27T21:54:53.982Z,3.98
2018-11-27T21:57:21.068Z,4.20
2018-11-27T21:59:47.969Z,4.42
2018-11-27T22:02:14.941Z,4.60
2018-11-27T22:04:41.853Z,4.00
2018-11-27T22:07:09.021Z,4.97
2018-11-27T22:09:36.258Z,5.00
2018-11-27T22:12:03.305Z,4.50
2018-11-27T22:14:30.472Z,5.55
2018-11-27T22:16:57.279Z,3.70
2018-11-27T22:19:24.140Z,4.42
2018-11-27T22:21:51.033Z,3.65
2018-11-27T22:24:18.154Z,4.00
2018-11-27T22:26:45.239Z,4.40
2018-11-27T22:29:12.078Z,4.00
2018-11-27T22:31:38.919Z,4.15
2018-11-27T22:34:05.831Z,3.87
2018-11-27T22:36:32.846Z,3.70
2018-11-27T22:38:59.709Z,3.58
2018-11-27T22:41:27.270Z,3.72
2018-11-27T22:43:54.234Z,4.08
2018-11-27T22:46:21.576Z,4.15
2018-11-27T22:48:49.029Z,3.75
2018-11-27T22:51:15.870Z,3.30
2018-11-27T22:53:42.482Z,4.47
2018-11-27T22:56:09.292Z,3.12
2018-11-27T22:58:36.455Z,3.08
2018-11-27T23:01:03.571Z,3.75
2018-11-27T23:03:30.281Z,3.47
2018-11-27T23:05:58.538Z,4.47
2018-11-27T23:08:25.354Z,4.08
2018-11-27T23:10:52.251Z,2.95
2018-11-27T23:13:19.330Z,3.20
2018-11-27T23:15:46.900Z,3.80
2018-11-27T23:18:14.389Z,3.90
2018-11-27T23:20:41.358Z,3.90
2018-11-27T23:23:08.308Z,2.80
2018-11-27T23:25:35.366Z,4.40
2018-11-27T23:28:02.621Z,4.50
2018-11-27T23:30:29.466Z,4.03
2018-11-27T23:32:56.394Z,4.37
2018-11-27T23:35:23.361Z,3.47
2018-11-27T23:37:50.304Z,5.12
2018-11-27T23:40:17.443Z,3.37
2018-11-27T23:42:44.695Z,4.25
2018-11-27T23:45:12.871Z,4.33
2018-11-27T23:47:39.607Z,3.90
2018-11-27T23:50:06.491Z,3.62
2018-11-27T23:52:33.614Z,3.90
2018-11-27T23:55:00.441Z,3.70
2018-11-27T23:57:27.402Z,4.12
2018-11-27T23:59:54.123Z,3.22
